Terminal Aerodrome Forecast
Issued by NWS

Home | Current Version | Previous Version | Text Only | Print | Product List | Glossary On
Versions: 1 2 3 4 5 6 7 8 9 10 11 12 13 14 15 16 17 18 19 20 21 22 23 24 25 26 27 28 29
727
FTUS41 KBUF 272336
TAFJHW
TAF
KJHW 272336Z 2800/2824 32006KT P6SM SKC
     FM280200 00000KT P6SM SKC
     FM280600 00000KT 2SM BR SCT050
     FM281100 VRB03KT P6SM SCT050
     FM281800 33006KT P6SM VCSH BKN050
     FM282100 35006KT P6SM BKN150
      AMD LTD TO CLD VIS AND WIND=

USA.gov is the U.S. government's official web portal to all federal, state and local government web resources and services.